S/y Squall — ZCIF2 — position and weather

sailwx.info

Track history (hours):
 
Tides and Currents Weather Stations Pressure Air Temp Water Temp Dewpoint Dewpoint Depression Visibility Wind Speed Wind Dir Waves Ship Positions

S/y Squall

Last reported at 2015-Aug-28 05:12 UTC. Time now 2015-Aug-28 14:47 UTC.
Position N 38°44' E 014°45'.

Length 52 m; draft 5.2 m.

Type: Sailing vessel. MMSI: 319811000.

Date/timePositionNaut miles runAvg speedWind from/ knotsBaromVisibWave heightAir tempDewpointWater temp
2015-Aug-28 05:12N 38°44' E 014°45'811.2
2015-Aug-28 04:32N 38°40' E 014°53'1111.2
2015-Aug-28 03:33N 38°35' E 015°06'1111.2
2015-Aug-28 02:33N 38°30' E 015°18'1111.0
2015-Aug-28 01:33N 38°25' E 015°31'1010.4
2015-Aug-28 00:33N 38°18' E 015°41'10 9.8
2015-Aug-27 23:33N 38°09' E 015°37'1211.4
2015-Aug-27 22:32N 37°57' E 015°38'1111.0
2015-Aug-27 21:32N 37°51' E 015°49'  
2015-Aug-25 00:20N 36°09' E 025°00'810.1
2015-Aug-24 23:32N 36°09' E 025°10'2110.7
2015-Aug-24 21:32N 36°12' E 025°37'1212.3
2015-Aug-24 20:33N 36°14' E 025°51'1414.0
2015-Aug-24 19:31N 36°21' E 026°08'60 2.0
2015-Aug-23 13:30N 37°20' E 025°55'1111.9
2015-Aug-23 12:32N 37°22' E 025°41'1312.7
2015-Aug-23 11:33N 37°25' E 025°26'5 5.1
2015-Aug-23 10:31N 37°24' E 025°19'0 0.0
2015-Aug-23 09:28N 37°24' E 025°19'0 0.0
2015-Aug-23 08:31N 37°24' E 025°19'0 0.0
2015-Aug-23 07:31N 37°24' E 025°19'0 0.0
2015-Aug-23 06:28N 37°24' E 025°19'0 0.0
2015-Aug-23 05:28N 37°24' E 025°19'0 0.0
2015-Aug-23 04:28N 37°24' E 025°19'0 0.0
2015-Aug-23 03:31N 37°24' E 025°19'0 0.0
2015-Aug-23 02:28N 37°24' E 025°19'0 0.0
2015-Aug-23 01:31N 37°24' E 025°19'0 0.0
2015-Aug-23 00:31N 37°24' E 025°19'0 0.0
2015-Aug-22 23:31N 37°24' E 025°19'0 0.0
2015-Aug-22 22:25N 37°24' E 025°19'0 0.0
2015-Aug-22 21:31N 37°24' E 025°19'0 0.0
2015-Aug-22 20:31N 37°24' E 025°19'0 0.0
2015-Aug-22 19:31N 37°24' E 025°19'0 0.0
2015-Aug-22 18:31N 37°24' E 025°19'0 0.0
2015-Aug-22 17:31N 37°24' E 025°19'0 0.0
2015-Aug-22 16:25N 37°24' E 025°19'0 0.0
2015-Aug-22 15:31N 37°24' E 025°19'0 0.0
2015-Aug-22 14:31N 37°24' E 025°19'0 0.0
2015-Aug-22 13:31N 37°24' E 025°19'1 1.4
2015-Aug-22 12:33N 37°23' E 025°19'3 2.9
2015-Aug-22 11:32N 37°22' E 025°15'0 0.0
2015-Aug-22 10:32N 37°22' E 025°15'0 0.0
2015-Aug-22 09:32N 37°22' E 025°15'0 0.0
2015-Aug-22 08:32N 37°22' E 025°15'0 0.2
2015-Aug-22 07:34N 37°22' E 025°15'4 4.1
2015-Aug-22 06:31N 37°25' E 025°19'0 0.0
2015-Aug-22 05:31N 37°25' E 025°19'0 0.0
2015-Aug-22 04:31N 37°25' E 025°19'0 0.0
2015-Aug-22 03:31N 37°25' E 025°19'0 0.0
2015-Aug-22 02:31N 37°25' E 025°19'0 0.0
2015-Aug-22 01:32N 37°25' E 025°19'0 0.0
2015-Aug-22 00:31N 37°25' E 025°19'0 0.0
2015-Aug-21 23:32N 37°25' E 025°19'0 0.0
2015-Aug-21 22:31N 37°25' E 025°19'0 0.0
2015-Aug-21 21:31N 37°25' E 025°19'0 0.0
2015-Aug-21 20:31N 37°25' E 025°19'0 0.0
2015-Aug-21 19:31N 37°25' E 025°19'0 0.0
2015-Aug-21 18:31N 37°25' E 025°19'0 0.0
2015-Aug-21 17:31N 37°25' E 025°19'0 0.0
2015-Aug-21 16:31N 37°25' E 025°19'0 0.0
2015-Aug-21 15:31N 37°25' E 025°19'0 0.0
2015-Aug-21 14:31N 37°25' E 025°19'0 0.0
2015-Aug-21 13:28N 37°25' E 025°19'0 0.0
2015-Aug-21 12:32N 37°25' E 025°19'4 4.6
2015-Aug-21 11:33N 37°23' E 025°14'0 0.1
2015-Aug-21 10:33N 37°23' E 025°14'0 0.0
2015-Aug-21 09:33N 37°23' E 025°14'0 0.0
2015-Aug-21 08:33N 37°23' E 025°14'0 0.0
2015-Aug-21 07:33N 37°23' E 025°14'0 0.1
2015-Aug-21 06:33N 37°23' E 025°15'1010.3
2015-Aug-21 05:33N 37°13' E 025°18'9 8.5
2015-Aug-21 04:31N 37°04' E 025°21'0 0.0
2015-Aug-21 03:31N 37°04' E 025°21'0 0.0
2015-Aug-21 02:31N 37°04' E 025°21'0 0.0
2015-Aug-21 01:31N 37°04' E 025°20'0 0.0
2015-Aug-21 00:31N 37°04' E 025°20'0 0.0
2015-Aug-20 23:31N 37°04' E 025°20'0 0.0
2015-Aug-20 22:31N 37°04' E 025°20'0 0.0
2015-Aug-20 21:31N 37°04' E 025°20'0 0.0
2015-Aug-20 20:31N 37°04' E 025°21'0 0.0
2015-Aug-20 19:31N 37°04' E 025°21'0 0.0
2015-Aug-20 18:33N 37°04' E 025°21'9 8.7
2015-Aug-20 17:33N 36°56' E 025°24'10 9.8
2015-Aug-20 16:31N 36°55' E 025°37'0 0.2
2015-Aug-20 15:09N 36°55' E 025°37'0 0.0
2015-Aug-20 14:33N 36°55' E 025°37'0 0.0
2015-Aug-20 13:28N 36°55' E 025°37'0 0.0
2015-Aug-20 12:33N 36°55' E 025°37'6 0.2
2015-Aug-19 13:33N 36°51' E 025°32'10 9.8
2015-Aug-19 12:33N 36°42' E 025°26'11 2.2
2015-Aug-19 07:25N 36°36' E 025°14'13 7.1
2015-Aug-19 05:33N 36°37' E 024°57'0 0.1
2015-Aug-19 04:30N 36°37' E 024°57'0 0.0
2015-Aug-19 03:33N 36°37' E 024°57'0 0.0
2015-Aug-19 02:33N 36°37' E 024°57'0 0.0
2015-Aug-19 01:33N 36°37' E 024°57'0 0.0
2015-Aug-19 00:30N 36°37' E 024°57'0 0.0
2015-Aug-18 23:33N 36°37' E 024°57'0 0.0
2015-Aug-18 22:33N 36°37' E 024°57'0 0.0
2015-Aug-18 21:33N 36°37' E 024°57'0 0.0
2015-Aug-18 20:30N 36°37' E 024°57'0 0.0
2015-Aug-18 19:33N 36°37' E 024°57'0 0.0
2015-Aug-18 18:24N 36°37' E 024°57'0 0.0
2015-Aug-18 17:33N 36°37' E 024°57'0 0.0
2015-Aug-18 14:28N 36°37' E 024°57'  
Track history (hours):
 
Tides and Currents Weather Stations Pressure Air Temp Water Temp Dewpoint Dewpoint Depression Visibility Wind Speed Wind Dir Waves Ship Positions

S/y Squall

Last reported at 2015-Aug-28 05:12 UTC. Time now 2015-Aug-28 14:47 UTC.
Position N 38°44' E 014°45'.

Length 52 m; draft 5.2 m.

Type: Sailing vessel. MMSI: 319811000.

Date/timePositionNaut miles runAvg speedWind from/ knotsBaromVisibWave heightAir tempDewpointWater temp
2015-Aug-28 05:12N 38°44' E 014°45'811.2
2015-Aug-28 04:32N 38°40' E 014°53'1111.2
2015-Aug-28 03:33N 38°35' E 015°06'1111.2
2015-Aug-28 02:33N 38°30' E 015°18'1111.0
2015-Aug-28 01:33N 38°25' E 015°31'1010.4
2015-Aug-28 00:33N 38°18' E 015°41'10 9.8
2015-Aug-27 23:33N 38°09' E 015°37'1211.4
2015-Aug-27 22:32N 37°57' E 015°38'1111.0
2015-Aug-27 21:32N 37°51' E 015°49'  
2015-Aug-25 00:20N 36°09' E 025°00'810.1
2015-Aug-24 23:32N 36°09' E 025°10'2110.7
2015-Aug-24 21:32N 36°12' E 025°37'1212.3
2015-Aug-24 20:33N 36°14' E 025°51'1414.0
2015-Aug-24 19:31N 36°21' E 026°08'60 2.0
2015-Aug-23 13:30N 37°20' E 025°55'1111.9
2015-Aug-23 12:32N 37°22' E 025°41'1312.7
2015-Aug-23 11:33N 37°25' E 025°26'5 5.1
2015-Aug-23 10:31N 37°24' E 025°19'0 0.0
2015-Aug-23 09:28N 37°24' E 025°19'0 0.0
2015-Aug-23 08:31N 37°24' E 025°19'0 0.0
2015-Aug-23 07:31N 37°24' E 025°19'0 0.0
2015-Aug-23 06:28N 37°24' E 025°19'0 0.0
2015-Aug-23 05:28N 37°24' E 025°19'0 0.0
2015-Aug-23 04:28N 37°24' E 025°19'0 0.0
2015-Aug-23 03:31N 37°24' E 025°19'0 0.0
2015-Aug-23 02:28N 37°24' E 025°19'0 0.0
2015-Aug-23 01:31N 37°24' E 025°19'0 0.0
2015-Aug-23 00:31N 37°24' E 025°19'0 0.0
2015-Aug-22 23:31N 37°24' E 025°19'0 0.0
2015-Aug-22 22:25N 37°24' E 025°19'0 0.0
2015-Aug-22 21:31N 37°24' E 025°19'0 0.0
2015-Aug-22 20:31N 37°24' E 025°19'0 0.0
2015-Aug-22 19:31N 37°24' E 025°19'0 0.0
2015-Aug-22 18:31N 37°24' E 025°19'0 0.0
2015-Aug-22 17:31N 37°24' E 025°19'0 0.0
2015-Aug-22 16:25N 37°24' E 025°19'0 0.0
2015-Aug-22 15:31N 37°24' E 025°19'0 0.0
2015-Aug-22 14:31N 37°24' E 025°19'0 0.0
2015-Aug-22 13:31N 37°24' E 025°19'1 1.4
2015-Aug-22 12:33N 37°23' E 025°19'3 2.9
2015-Aug-22 11:32N 37°22' E 025°15'0 0.0
2015-Aug-22 10:32N 37°22' E 025°15'0 0.0
2015-Aug-22 09:32N 37°22' E 025°15'0 0.0
2015-Aug-22 08:32N 37°22' E 025°15'0 0.2
2015-Aug-22 07:34N 37°22' E 025°15'4 4.1
2015-Aug-22 06:31N 37°25' E 025°19'0 0.0
2015-Aug-22 05:31N 37°25' E 025°19'0 0.0
2015-Aug-22 04:31N 37°25' E 025°19'0 0.0
2015-Aug-22 03:31N 37°25' E 025°19'0 0.0
2015-Aug-22 02:31N 37°25' E 025°19'0 0.0
2015-Aug-22 01:32N 37°25' E 025°19'0 0.0
2015-Aug-22 00:31N 37°25' E 025°19'0 0.0
2015-Aug-21 23:32N 37°25' E 025°19'0 0.0
2015-Aug-21 22:31N 37°25' E 025°19'0 0.0
2015-Aug-21 21:31N 37°25' E 025°19'0 0.0
2015-Aug-21 20:31N 37°25' E 025°19'0 0.0
2015-Aug-21 19:31N 37°25' E 025°19'0 0.0
2015-Aug-21 18:31N 37°25' E 025°19'0 0.0
2015-Aug-21 17:31N 37°25' E 025°19'0 0.0
2015-Aug-21 16:31N 37°25' E 025°19'0 0.0
2015-Aug-21 15:31N 37°25' E 025°19'0 0.0
2015-Aug-21 14:31N 37°25' E 025°19'0 0.0
2015-Aug-21 13:28N 37°25' E 025°19'0 0.0
2015-Aug-21 12:32N 37°25' E 025°19'4 4.6
2015-Aug-21 11:33N 37°23' E 025°14'0 0.1
2015-Aug-21 10:33N 37°23' E 025°14'0 0.0
2015-Aug-21 09:33N 37°23' E 025°14'0 0.0
2015-Aug-21 08:33N 37°23' E 025°14'0 0.0
2015-Aug-21 07:33N 37°23' E 025°14'0 0.1
2015-Aug-21 06:33N 37°23' E 025°15'1010.3
2015-Aug-21 05:33N 37°13' E 025°18'9 8.5
2015-Aug-21 04:31N 37°04' E 025°21'0 0.0
2015-Aug-21 03:31N 37°04' E 025°21'0 0.0
2015-Aug-21 02:31N 37°04' E 025°21'0 0.0
2015-Aug-21 01:31N 37°04' E 025°20'0 0.0
2015-Aug-21 00:31N 37°04' E 025°20'0 0.0
2015-Aug-20 23:31N 37°04' E 025°20'0 0.0
2015-Aug-20 22:31N 37°04' E 025°20'0 0.0
2015-Aug-20 21:31N 37°04' E 025°20'0 0.0
2015-Aug-20 20:31N 37°04' E 025°21'0 0.0
2015-Aug-20 19:31N 37°04' E 025°21'0 0.0
2015-Aug-20 18:33N 37°04' E 025°21'9 8.7
2015-Aug-20 17:33N 36°56' E 025°24'10 9.8
2015-Aug-20 16:31N 36°55' E 025°37'0 0.2
2015-Aug-20 15:09N 36°55' E 025°37'0 0.0
2015-Aug-20 14:33N 36°55' E 025°37'0 0.0
2015-Aug-20 13:28N 36°55' E 025°37'0 0.0
2015-Aug-20 12:33N 36°55' E 025°37'6 0.2
2015-Aug-19 13:33N 36°51' E 025°32'10 9.8
2015-Aug-19 12:33N 36°42' E 025°26'11 2.2
2015-Aug-19 07:25N 36°36' E 025°14'13 7.1
2015-Aug-19 05:33N 36°37' E 024°57'0 0.1
2015-Aug-19 04:30N 36°37' E 024°57'0 0.0
2015-Aug-19 03:33N 36°37' E 024°57'0 0.0
2015-Aug-19 02:33N 36°37' E 024°57'0 0.0
2015-Aug-19 01:33N 36°37' E 024°57'0 0.0
2015-Aug-19 00:30N 36°37' E 024°57'0 0.0
2015-Aug-18 23:33N 36°37' E 024°57'0 0.0
2015-Aug-18 22:33N 36°37' E 024°57'0 0.0
2015-Aug-18 21:33N 36°37' E 024°57'0 0.0
2015-Aug-18 20:30N 36°37' E 024°57'0 0.0
2015-Aug-18 19:33N 36°37' E 024°57'0 0.0
2015-Aug-18 18:24N 36°37' E 024°57'0 0.0
2015-Aug-18 17:33N 36°37' E 024°57'0 0.0
2015-Aug-18 14:28N 36°37' E 024°57'  

Dump ship's entire track history